NY/NJ Local METAR Reports

No Warnings, Watches, or Advisories
KNYC - NYC/Central Park, NY, USA
Distance from station: NE 4mi, 7km
Updated: 10/21/2021 12:51pm
Clear
Clear
 Wind from varies
Wind: varies 6 mph , 9 km/h
Temperature: 72°F , 22°C
Dew Point: 48°F , 9°C
Humidity: 44%
Barometer: 30.00 inHg , 1015.9 hPa
Clouds: Clear
Visibility: 10 miles , 16 km
2021/10/21 16:51 KNYC 211651Z AUTO VRB05KT 10SM CLR 22/09 A3000 RMK AO2 SLP150 T02220094
KEWR - Newark, NJ, USA
Distance from station: WSW 8mi, 13km
Updated: 10/21/2021 12:51pm
Partly cloudy
Partly cloudy
 Wind from WSW
Wind: WSW 9 mph , 15 km/h
Temperature: 77°F , 25°C
Dew Point: 48°F , 9°C
Humidity: 36%
Barometer: 29.97 inHg , 1014.9 hPa
Clouds: Partly cloudy
Visibility: 10 miles , 16 km
Cloud details: Few Clouds 14000 ft
Partly cloudy 25000 ft
2021/10/21 16:51 KEWR 211651Z 24008KT 10SM FEW140 SCT250 25/09 A2997 RMK AO2 SLP149 T02500089
 
KLGA - NYC/La Guardia, NY, USA
Distance from station: ENE 8mi, 13km
Updated: 10/21/2021 12:51pm
Mostly cloudy
Mostly cloudy
 Wind from WSW
Wind: WSW 12 mph , 19 km/h
Temperature: 75°F , 24°C
Dew Point: 45°F , 7°C
Humidity: 34%
Barometer: 29.97 inHg , 1014.9 hPa
Clouds: Mostly cloudy
Visibility: 10 miles , 16 km
Cloud details: Mostly cloudy 25000 ft
2021/10/21 16:51 KLGA 211651Z 24010KT 10SM BKN250 24/07 A2997 RMK AO2 SLP149 T02390072
KTEB - Teterboro, NJ, USA
Distance from station: N 9mi, 14km
Updated: 10/21/2021 12:51pm
Clear
Clear
 Wind from SW
Wind: SW 13 mph , 20 km/h
Temperature: 75°F , 24°C
Dew Point: 48°F , 9°C
Humidity: 39%
Barometer: 29.96 inHg , 1014.6 hPa
Clouds: Clear
Visibility: 10 miles , 16 km
2021/10/21 16:51 KTEB 211651Z 23011KT 10SM CLR 24/09 A2996 RMK AO2 SLP145 T02390094
 
KJFK - NYC/Jfk Arpt, NY, USA
Distance from station: ESE 16mi, 25km
Updated: 10/21/2021 12:51pm
Mostly cloudy
Mostly cloudy
 Wind from SSW
Wind: SSW 12 mph , 19 km/h
Temperature: 72°F , 22°C
Dew Point: 52°F , 11°C
Humidity: 50%
Barometer: 30.00 inHg , 1015.9 hPa
Clouds: Mostly cloudy
Visibility: 10 miles , 16 km
Cloud details: Few Clouds 12000 ft
Mostly cloudy 27000 ft
2021/10/21 16:51 KJFK 211651Z 20010KT 10SM FEW120 BKN270 22/11 A3000 RMK AO2 SLP157 T02170111
KCDW - Caldwell, NJ, USA
Distance from station: NW 16mi, 26km
Updated: 10/21/2021 12:53pm
Clear
Clear
 Wind from W
Wind: W 7 mph , 11 km/h
Temperature: 75°F , 24°C
Dew Point: 48°F , 9°C
Humidity: 39%
Barometer: 29.98 inHg , 1015.2 hPa
Clouds: Clear
Visibility: 10 miles , 16 km
2021/10/21 16:53 KCDW 211653Z 26006KT 10SM CLR 24/09 A2998 RMK AO2 SLP155 T02390089
 
KMMU - Morristown Muni, NJ, USA
Distance from station: W 20mi, 33km
Updated: 10/21/2021 12:45pm
Partly cloudy
Partly cloudy
 Wind from W
Wind: W 9 mph , 15 km/h
Temperature: 72°F , 22°C
Dew Point: 52°F , 11°C
Humidity: 50%
Barometer: 29.98 inHg , 1015.2 hPa
Clouds: Partly cloudy
Visibility: 10 miles , 16 km
Cloud details: Partly cloudy 25000 ft
2021/10/21 16:45 KMMU 211645Z 27008KT 10SM SCT250 22/11 A2998
KHPN - White Plains, NY, USA
Distance from station: NE 28mi, 46km
Updated: 10/21/2021 12:56pm
Clear
Clear
 Wind from varies
Wind: varies 5 mph , 7 km/h
Temperature: 72°F , 22°C
Dew Point: 48°F , 9°C
Humidity: 44%
Barometer: 29.97 inHg , 1014.9 hPa
Clouds: Clear
Visibility: 10 miles , 16 km
2021/10/21 16:56 KHPN 211656Z VRB04KT 10SM CLR 22/09 A2997 RMK AO2 SLP146 T02220089
 
KFRG - Farmingdale, NY, USA
Distance from station: E 32mi, 52km
Updated: 10/21/2021 12:53pm
Clear
Clear
 Wind from SW
Wind: SW 13 mph , 20 km/h
Temperature: 73°F , 23°C
Dew Point: 48°F , 9°C
Humidity: 41%
Barometer: 29.99 inHg , 1015.6 hPa
Clouds: Clear
Visibility: 10 miles , 16 km
2021/10/21 16:53 KFRG 211653Z 22011KT 10SM CLR 23/09 A2999 RMK AO2 SLP155 T02330094
KSMQ - Somerville, NJ, USA
Distance from station: WSW 34mi, 55km
Updated: 10/21/2021 12:53pm
Clear
Clear
 Wind from calm
Wind: Calm
Temperature: 75°F , 24°C
Dew Point: 52°F , 11°C
Humidity: 44%
Barometer: 29.96 inHg , 1014.6 hPa
Clouds: Clear
Visibility: 10 miles , 16 km
2021/10/21 16:53 KSMQ 211653Z AUTO 00000KT 10SM CLR 24/11 A2996 RMK AO2 SLP145 T02390111
 
KBLM - Belmar/Farmdale, NJ, USA
Distance from station: S 40mi, 64km
Updated: 10/21/2021 12:56pm
Clear
Clear
 Wind from SW
Wind: SW 9 mph , 15 km/h
Temperature: 75°F , 24°C
Dew Point: 52°F , 11°C
Humidity: 44%
Barometer: 30.00 inHg , 1015.9 hPa
Clouds: Clear
Visibility: 10 miles , 16 km
2021/10/21 16:56 KBLM 211656Z AUTO 22008KT 10SM CLR 24/11 A3000 RMK AO2 SLP158 T02390106 PNO $
K12N - Andover, NJ, USA
Distance from station: WNW 41mi, 67km
Updated: 10/21/2021 12:54pm

 Wind from varies
Wind: varies 7 mph , 11 km/h
Temperature: 72°F , 22°C
Dew Point: 50°F , 10°C
Humidity: 47%
Barometer: 29.98 inHg , 1015.2 hPa
2021/10/21 16:54 K12N 211654Z AUTO VRB06KT 22/10 A2998 RMK AO1 SLP149 T02220100
 
KFWN - Sussex, NJ, USA
Distance from station: NW 45mi, 72km
Updated: 10/21/2021 12:53pm
Clear
Clear
 Wind from SW
Wind: SW 9 mph , 15 km/h, Gust: 17 mph , 28 km/h
Temperature: 72°F , 22°C
Dew Point: 50°F , 10°C
Humidity: 47%
Barometer: 29.98 inHg , 1015.2 hPa
Clouds: Clear
Visibility: 10 miles , 16 km
2021/10/21 16:53 KFWN 211653Z AUTO 22008G15KT 180V270 10SM CLR 22/10 A2998 RMK AO2 SLP150 T02170100 $
KISP - Islip, NY, USA
Distance from station: E 49mi, 79km
Updated: 10/21/2021 12:56pm
Partly cloudy
Partly cloudy
 Wind from SSW
Wind: SSW 13 mph , 20 km/h
Temperature: 72°F , 22°C
Dew Point: 52°F , 11°C
Humidity: 50%
Barometer: 29.99 inHg , 1015.6 hPa
Clouds: Partly cloudy
Visibility: 10 miles , 16 km
Cloud details: Partly cloudy 25000 ft
2021/10/21 16:56 KISP 211656Z 21011KT 10SM SCT250 22/11 A2999 RMK AO2 SLP155 T02220106